Sao Paulo/Guarulhos International Airport

Airport
ICAO code: 
SBGR
IATA Code: 
GRU
Summary
ICAO Region: 
CARSAM
Territory: 
Location: 
Guarulhos, São Paulo
Serving: 
São Paulo
Elevation: 
2459 ft
Coordinates: 
Aerial View: 
23° 26' 6" S, 46° 28' 23.988" W
Metar
Observation
SBGR 281600Z 06005KT CAVOK 20/14 Q1020
Station
Guarulhos Civ / Mil
Date/Time
2022-06-28 16:00:00
Wind direction
60°
Wind speed
05 kts
Lowest cloud amount
clouds and visibility OK
Temperature
20°C
Dew point
14°C
Humidity
68%
QNH
1020 hPa
Weather condition
n/a

São Paulo/Guarulhos–Governador André Franco Montoro International Airport, often referred to as GRU Airport, or simply GRU, is the primary international airport serving São Paulo. It is popularly known locally as Cumbica Airport.

Climatology

Humid “subtropical” climate (Köppen climate classification Cfa)

Runways

Designator Length Width Surface Rops
09R/27L 3000 45 ASP Yes/Yes
09L/27R 3700 45 ASP Yes/Yes
Airport map: 
Aerial View: 

SKYbrary Partners:

Safety knowledge contributed by: